createdAt,value
2018-08-16T00:00:50.406Z,24.96
2018-08-16T00:05:33.832Z,24.85
2018-08-16T00:10:19.235Z,24.71
2018-08-16T00:15:02.706Z,24.63
2018-08-16T00:19:47.199Z,24.86
2018-08-16T00:24:30.715Z,24.80
2018-08-16T00:29:14.362Z,24.96
2018-08-16T00:33:57.958Z,24.87
2018-08-16T00:38:41.418Z,24.70
2018-08-16T00:43:25.086Z,24.72
2018-08-16T00:48:08.568Z,24.52
2018-08-16T00:52:55.091Z,24.49
2018-08-16T00:57:39.181Z,24.44
2018-08-16T01:02:22.940Z,24.73
2018-08-16T01:07:06.418Z,24.49
2018-08-16T01:11:51.238Z,24.85
2018-08-16T01:16:34.744Z,25.00
2018-08-16T01:21:19.249Z,24.77
2018-08-16T01:26:02.753Z,24.79
2018-08-16T01:30:46.401Z,24.71
2018-08-16T01:35:29.955Z,24.70
2018-08-16T01:40:14.731Z,24.54
2018-08-16T01:44:58.304Z,24.47
2018-08-16T01:49:43.002Z,24.69
2018-08-16T01:54:27.610Z,24.69
2018-08-16T01:59:11.412Z,24.47
2018-08-16T02:03:54.998Z,24.50
2018-08-16T02:08:38.671Z,24.33
2018-08-16T02:13:22.233Z,24.53
2018-08-16T02:18:07.101Z,24.33
2018-08-16T02:22:50.899Z,24.31
2018-08-16T02:27:34.430Z,24.36
2018-08-16T02:32:18.173Z,24.24
2018-08-16T02:37:01.684Z,24.21
2018-08-16T02:41:45.465Z,24.19
2018-08-16T02:46:29.089Z,24.20
2018-08-16T02:51:12.973Z,24.30
2018-08-16T02:55:56.483Z,24.04
2018-08-16T03:00:40.075Z,24.03
2018-08-16T03:05:23.643Z,24.03
2018-08-16T03:10:09.287Z,24.09
2018-08-16T03:14:52.613Z,24.04
2018-08-16T03:19:36.205Z,23.74
2018-08-16T03:24:19.714Z,23.71
2018-08-16T03:29:03.312Z,24.12
2018-08-16T03:33:46.895Z,23.95
2018-08-16T03:38:30.343Z,23.98
2018-08-16T03:43:13.936Z,23.78
2018-08-16T03:47:57.466Z,24.03
2018-08-16T03:52:42.104Z,23.96
2018-08-16T03:57:25.678Z,23.77
2018-08-16T04:02:09.311Z,24.02
2018-08-16T04:06:52.878Z,23.70
2018-08-16T04:11:37.339Z,23.84
2018-08-16T04:16:20.839Z,23.67
2018-08-16T04:21:07.451Z,23.74
2018-08-16T04:25:50.842Z,23.87
2018-08-16T04:30:34.456Z,23.86
2018-08-16T04:35:17.936Z,23.90
2018-08-16T04:40:01.658Z,23.99
2018-08-16T04:44:45.117Z,23.84
2018-08-16T04:49:28.946Z,23.97
2018-08-16T04:54:12.367Z,23.85
2018-08-16T04:58:56.066Z,23.97
2018-08-16T05:03:43.544Z,24.18
2018-08-16T05:08:28.148Z,24.15
2018-08-16T05:13:11.787Z,24.41
2018-08-16T05:17:56.494Z,24.28
2018-08-16T05:22:42.425Z,24.30
2018-08-16T05:27:27.585Z,24.67
2018-08-16T05:32:11.194Z,24.60
2018-08-16T05:36:54.701Z,24.76
2018-08-16T05:41:44.273Z,25.05
2018-08-16T05:46:39.661Z,25.03
2018-08-16T05:51:28.492Z,25.23
2018-08-16T05:56:12.181Z,25.38
2018-08-16T06:00:59.312Z,25.51
2018-08-16T06:05:42.656Z,25.78
2018-08-16T06:10:27.294Z,25.81
2018-08-16T06:15:10.793Z,25.94
2018-08-16T06:19:57.456Z,26.17
2018-08-16T06:24:40.816Z,26.30
2018-08-16T06:29:24.254Z,26.44
2018-08-16T06:34:07.626Z,26.50
2018-08-16T06:38:51.143Z,26.70
2018-08-16T06:43:35.282Z,26.63
2018-08-16T06:48:20.065Z,26.79
2018-08-16T06:53:06.354Z,26.83
2018-08-16T06:57:51.684Z,27.06
2018-08-16T07:02:35.145Z,27.15
2018-08-16T07:07:18.685Z,27.25
2018-08-16T07:12:05.624Z,27.63
2018-08-16T07:16:50.750Z,27.57
2018-08-16T07:21:34.290Z,27.69
2018-08-16T07:26:17.813Z,27.90
2018-08-16T07:31:01.355Z,28.04
2018-08-16T07:35:59.515Z,28.22
2018-08-16T07:40:44.493Z,28.26
2018-08-16T07:45:28.410Z,28.30
2018-08-16T07:50:12.793Z,28.30
2018-08-16T07:54:56.224Z,28.82
2018-08-16T07:59:40.060Z,28.79
2018-08-16T08:04:23.720Z,28.84
2018-08-16T08:09:09.482Z,28.97
2018-08-16T08:13:52.843Z,29.25
2018-08-16T08:18:36.269Z,29.16
2018-08-16T08:23:19.932Z,29.41
2018-08-16T08:28:03.413Z,28.99
2018-08-16T08:32:46.946Z,29.49
2018-08-16T08:37:41.386Z,29.74
2018-08-16T08:42:26.384Z,29.65
2018-08-16T08:47:17.749Z,29.89
2018-08-16T08:52:02.405Z,30.17
2018-08-16T08:56:58.138Z,29.64
2018-08-16T09:01:41.816Z,29.23
2018-08-16T09:06:26.014Z,29.81
2018-08-16T09:11:21.613Z,30.58
2018-08-16T09:16:09.970Z,30.20
2018-08-16T09:20:53.730Z,30.69
2018-08-16T09:25:37.212Z,30.38
2018-08-16T09:30:39.664Z,29.79
2018-08-16T09:35:24.203Z,30.57
2018-08-16T09:40:10.130Z,30.82
2018-08-16T09:45:03.137Z,30.68
2018-08-16T09:49:53.422Z,30.40
2018-08-16T09:54:37.376Z,30.87
2018-08-16T09:59:20.894Z,31.39
2018-08-16T10:04:05.412Z,30.71
2018-08-16T10:08:49.165Z,31.33
2018-08-16T10:13:32.700Z,31.04
2018-08-16T10:18:17.496Z,31.89
2018-08-16T10:23:01.026Z,31.01
2018-08-16T10:27:44.592Z,31.60
2018-08-16T10:32:28.161Z,31.21
2018-08-16T10:37:11.812Z,30.74
2018-08-16T10:41:57.257Z,31.37
2018-08-16T10:46:40.617Z,31.30
2018-08-16T10:51:27.754Z,31.35
2018-08-16T10:56:11.147Z,30.95
2018-08-16T11:00:54.554Z,32.04
2018-08-16T11:05:38.724Z,31.27
2018-08-16T11:10:22.199Z,31.75
2018-08-16T11:15:06.477Z,31.90
2018-08-16T11:19:49.963Z,32.88
2018-08-16T11:24:44.047Z,31.98
2018-08-16T11:29:28.953Z,32.14
2018-08-16T11:34:12.320Z,32.43
2018-08-16T11:38:55.954Z,32.58
2018-08-16T11:43:39.298Z,32.28
2018-08-16T11:48:23.813Z,32.38
2018-08-16T11:53:07.308Z,32.91
2018-08-16T11:57:51.745Z,32.98
2018-08-16T12:02:38.231Z,32.75
2018-08-16T12:07:24.366Z,32.52
2018-08-16T12:12:08.471Z,32.48
2018-08-16T12:16:51.893Z,32.53
2018-08-16T12:21:36.406Z,32.51
2018-08-16T12:26:19.847Z,32.38
2018-08-16T12:31:06.367Z,32.54
2018-08-16T12:35:49.870Z,32.60
2018-08-16T12:40:34.318Z,32.58
2018-08-16T12:45:17.775Z,32.31
2018-08-16T12:50:01.164Z,32.67
2018-08-16T12:54:44.672Z,32.78
2018-08-16T12:59:28.262Z,32.58
2018-08-16T13:04:11.682Z,33.00
2018-08-16T13:08:55.415Z,32.63
2018-08-16T13:13:38.664Z,33.07
2018-08-16T13:18:22.307Z,32.26
2018-08-16T13:23:05.824Z,32.16
2018-08-16T13:27:56.538Z,32.48
2018-08-16T13:32:49.379Z,32.44
2018-08-16T13:42:33.002Z,32.23
2018-08-16T13:47:16.359Z,32.17
2018-08-16T13:51:59.769Z,32.56
2018-08-16T13:56:43.141Z,32.80
2018-08-16T14:02:03.837Z,32.35
2018-08-16T14:06:48.121Z,32.46
2018-08-16T14:11:31.429Z,32.43
2018-08-16T14:16:14.769Z,32.74
2018-08-16T14:20:58.160Z,32.10
2018-08-16T14:25:41.599Z,32.60
2018-08-16T14:30:25.042Z,32.57
2018-08-16T14:35:08.499Z,32.52
2018-08-16T14:39:52.761Z,32.30
2018-08-16T14:44:37.192Z,32.10
2018-08-16T14:49:20.610Z,31.71
2018-08-16T14:54:03.903Z,31.76
2018-08-16T14:58:47.910Z,31.85
2018-08-16T15:03:32.137Z,31.67
2018-08-16T15:08:15.559Z,31.61
2018-08-16T15:12:58.953Z,31.65
2018-08-16T15:17:42.418Z,31.48
2018-08-16T15:22:25.863Z,31.28
2018-08-16T15:27:11.453Z,31.37
2018-08-16T15:31:54.926Z,31.31
2018-08-16T15:36:38.304Z,31.30
2018-08-16T15:41:21.545Z,31.31
2018-08-16T15:46:05.056Z,31.21
2018-08-16T15:50:48.454Z,31.21
2018-08-16T15:55:31.862Z,31.14
2018-08-16T16:00:15.228Z,31.07
2018-08-16T16:04:58.667Z,30.98
2018-08-16T16:09:45.112Z,30.87
2018-08-16T16:14:28.594Z,30.82
2018-08-16T16:19:12.271Z,30.76
2018-08-16T16:23:55.657Z,30.57
2018-08-16T16:28:40.392Z,30.57
2018-08-16T16:33:23.850Z,30.58
2018-08-16T16:38:07.318Z,30.58
2018-08-16T16:42:50.664Z,30.49
2018-08-16T16:47:34.153Z,30.48
2018-08-16T16:52:17.548Z,30.39
2018-08-16T16:57:00.913Z,30.34
2018-08-16T17:01:44.522Z,30.32
2018-08-16T17:06:27.833Z,30.12
2018-08-16T17:11:11.168Z,30.15
2018-08-16T17:15:54.530Z,30.09
2018-08-16T17:20:38.159Z,29.99
2018-08-16T17:25:21.639Z,29.82
2018-08-16T17:30:06.708Z,29.92
2018-08-16T17:34:50.182Z,29.83
2018-08-16T17:39:33.792Z,29.59
2018-08-16T17:44:17.157Z,29.43
2018-08-16T17:49:00.622Z,29.61
2018-08-16T17:53:44.213Z,29.42
2018-08-16T17:58:27.922Z,29.39
2018-08-16T18:03:11.495Z,29.35
2018-08-16T18:07:55.135Z,29.19
2018-08-16T18:12:42.269Z,29.16
2018-08-16T18:17:25.926Z,29.06
2018-08-16T18:22:09.902Z,28.90
2018-08-16T18:26:53.743Z,29.01
2018-08-16T18:31:38.112Z,28.89
2018-08-16T18:36:22.314Z,28.84
2018-08-16T18:41:05.875Z,28.85
2018-08-16T18:45:49.425Z,28.91
2018-08-16T18:50:46.139Z,28.70
2018-08-16T18:55:30.187Z,28.77
2018-08-16T19:00:14.366Z,28.68
2018-08-16T19:05:05.299Z,28.71
2018-08-16T19:09:51.330Z,28.75
2018-08-16T19:14:35.101Z,28.70
2018-08-16T19:19:18.711Z,28.54
2018-08-16T19:24:01.995Z,28.26
2018-08-16T19:28:45.532Z,28.40
2018-08-16T19:33:30.017Z,28.30
2018-08-16T19:38:17.115Z,28.45
2018-08-16T19:43:00.612Z,28.22
2018-08-16T19:47:44.429Z,28.24
2018-08-16T19:52:28.239Z,28.18
2018-08-16T19:57:11.790Z,28.38
2018-08-16T20:01:55.369Z,28.32
2018-08-16T20:06:39.032Z,28.32
2018-08-16T20:11:23.767Z,28.18
2018-08-16T20:16:07.382Z,28.20
2018-08-16T20:20:50.955Z,28.27
2018-08-16T20:25:48.274Z,28.12
2018-08-16T20:30:32.562Z,28.14
2018-08-16T20:35:16.366Z,28.20
2018-08-16T20:40:01.253Z,27.84
2018-08-16T20:44:44.862Z,27.86
2018-08-16T20:49:28.582Z,27.87
2018-08-16T20:54:13.254Z,27.63
2018-08-16T20:58:59.104Z,27.62
2018-08-16T21:03:42.703Z,27.69
2018-08-16T21:08:27.635Z,27.90
2018-08-16T21:13:11.314Z,27.50
2018-08-16T21:17:55.025Z,27.37
2018-08-16T21:22:38.609Z,27.51
2018-08-16T21:27:22.421Z,27.49
2018-08-16T21:32:05.817Z,27.73
2018-08-16T21:36:49.409Z,27.86
2018-08-16T21:41:32.818Z,27.72
2018-08-16T21:46:16.393Z,27.73
2018-08-16T21:50:59.891Z,27.61
2018-08-16T21:55:43.446Z,27.60
2018-08-16T22:00:40.862Z,27.76
2018-08-16T22:05:24.425Z,27.55
2018-08-16T22:10:10.821Z,27.43
2018-08-16T22:14:54.271Z,27.41
2018-08-16T22:19:37.750Z,27.54
2018-08-16T22:24:21.286Z,27.50
2018-08-16T22:29:05.043Z,27.50
2018-08-16T22:33:48.659Z,27.67
2018-08-16T22:38:32.206Z,27.24
2018-08-16T22:43:15.764Z,27.01
2018-08-16T22:47:59.485Z,26.64
2018-08-16T22:52:43.100Z,26.50
2018-08-16T22:57:26.796Z,26.63
2018-08-16T23:02:10.299Z,26.04
2018-08-16T23:06:53.842Z,26.48
2018-08-16T23:11:37.415Z,26.30
2018-08-16T23:16:22.188Z,26.39
2018-08-16T23:21:07.066Z,26.05
2018-08-16T23:25:51.497Z,26.12
2018-08-16T23:30:35.159Z,26.09
2018-08-16T23:35:18.698Z,25.59
2018-08-16T23:40:03.379Z,25.71
2018-08-16T23:44:47.492Z,25.53
2018-08-16T23:49:30.894Z,26.16
2018-08-16T23:54:14.306Z,25.97
2018-08-16T23:59:01.008Z,25.85
